Menu Horizontal
luftaufnahme
Willkommen auf der Webseite der privaten Wetterstation -- Taufkirchen an der Pram -- 48°24'29,52" Nord  <>  13°32'13,20" Ost
Wetterdaten - Mittwoch, 24.10.2018 - Taufkirchen an der Pram     336 m über NN
Wetterdaten: aktuell Mittwoch, 24.10.2018 01:40
Datum Zeit Temp. A. Feuchte A. Luftdruck Regen Wind Sonnenschein UV Solar Windchill Empfang
24.10.2018 01:40 12,4 °C 63 % 1018,3 hPa 0,0 l/m² 8,8 km/h 0 min 0,0 UV-I 0 W/m² 10,9 °C 100 %
24.10.2018 01:30 12,4 °C 64 % 1018,4 hPa 0,0 l/m² 10,6 km/h 0 min 0,0 UV-I 0 W/m² 9,9 °C 99 %
24.10.2018 01:20 12,4 °C 64 % 1018,7 hPa 0,0 l/m² 16,6 km/h 0 min 0,0 UV-I 0 W/m² 7,5 °C 100 %
24.10.2018 01:10 12,2 °C 65 % 1018,6 hPa 0,0 l/m² 11,5 km/h 0 min 0,0 UV-I 0 W/m² 9,3 °C 100 %
24.10.2018 01:00 12,2 °C 65 % 1018,7 hPa 0,0 l/m² 15,3 km/h 0 min 0,0 UV-I 0 W/m² 7,7 °C 100 %
24.10.2018 00:50 12,1 °C 66 % 1019,0 hPa 0,0 l/m² 12,3 km/h 0 min 0,0 UV-I 0 W/m² 8,8 °C 100 %
24.10.2018 00:40 12,1 °C 66 % 1018,9 hPa 0,0 l/m² 12,0 km/h 0 min 0,0 UV-I 0 W/m² 8,9 °C 100 %
24.10.2018 00:30 12,2 °C 67 % 1019,1 hPa 0,0 l/m² 15,4 km/h 0 min 0,0 UV-I 0 W/m² 7,6 °C 100 %
24.10.2018 00:20 11,9 °C 68 % 1019,6 hPa 0,0 l/m² 11,5 km/h 0 min 0,0 UV-I 0 W/m² 8,9 °C 100 %
24.10.2018 00:11 11,7 °C 70 % 1019,2 hPa 0,0 l/m² 9,8 km/h 0 min 0,0 UV-I 0 W/m² 9,6 °C 92 %
24.10.2018 00:00 10,9 °C 76 % 1019,6 hPa 0,0 l/m² 10,0 km/h 0 min 0,0 UV-I 0 W/m² 8,6 °C 100 %
23.10.2018 23:50 10,4 °C 81 % 1020,0 hPa 0,0 l/m² 4,1 km/h 0 min 0,0 UV-I 0 W/m² 10,4 °C 99 %
23.10.2018 23:40 10,3 °C 81 % 1020,4 hPa 0,0 l/m² 3,5 km/h 0 min 0,0 UV-I 0 W/m² 10,3 °C 100 %
23.10.2018 23:30 10,2 °C 81 % 1020,1 hPa 0,0 l/m² 2,7 km/h 0 min 0,0 UV-I 0 W/m² 10,2 °C 100 %
23.10.2018 23:20 10,2 °C 82 % 1020,1 hPa 0,0 l/m² 3,1 km/h 0 min 0,0 UV-I 0 W/m² 10,2 °C 100 %
23.10.2018 23:10 10,3 °C 83 % 1020,1 hPa 0,0 l/m² 5,1 km/h 0 min 0,0 UV-I 0 W/m² 10,3 °C 100 %
23.10.2018 23:00 10,3 °C 82 % 1020,4 hPa 0,0 l/m² 5,7 km/h 0 min 0,0 UV-I 0 W/m² 10,3 °C 100 %
23.10.2018 22:50 10,6 °C 81 % 1020,5 hPa 0,0 l/m² 5,7 km/h 0 min 0,0 UV-I 0 W/m² 10,6 °C 100 %
23.10.2018 22:40 10,9 °C 79 % 1020,8 hPa 0,0 l/m² 5,8 km/h 0 min 0,0 UV-I 0 W/m² 10,9 °C 100 %
23.10.2018 22:30 11,4 °C 76 % 1020,9 hPa 0,0 l/m² 7,0 km/h 0 min 0,0 UV-I 0 W/m² 11,0 °C 100 %
23.10.2018 22:20 11,4 °C 76 % 1020,8 hPa 0,0 l/m² 9,8 km/h 0 min 0,0 UV-I 0 W/m² 9,3 °C 100 %
23.10.2018 22:10 11,4 °C 76 % 1020,8 hPa 0,0 l/m² 10,2 km/h 0 min 0,0 UV-I 0 W/m² 9,0 °C 100 %
23.10.2018 22:00 11,3 °C 77 % 1021,1 hPa 0,0 l/m² 11,5 km/h 0 min 0,0 UV-I 0 W/m² 8,3 °C 100 %
23.10.2018 21:50 11,3 °C 77 % 1020,9 hPa 0,0 l/m² 10,7 km/h 0 min 0,0 UV-I 0 W/m² 8,7 °C 100 %
23.10.2018 21:40 11,4 °C 76 % 1020,9 hPa 0,0 l/m² 12,4 km/h 0 min 0,0 UV-I 0 W/m² 7,9 °C 100 %
23.10.2018 21:30 11,6 °C 72 % 1021,2 hPa 0,0 l/m² 5,5 km/h 0 min 0,0 UV-I 0 W/m² 11,6 °C 100 %
23.10.2018 21:20 11,7 °C 71 % 1021,0 hPa 0,0 l/m² 9,4 km/h 0 min 0,0 UV-I 0 W/m² 9,8 °C 100 %
23.10.2018 21:10 11,6 °C 71 % 1021,1 hPa 0,0 l/m² 7,4 km/h 0 min 0,0 UV-I 0 W/m² 10,9 °C 100 %
23.10.2018 21:00 11,4 °C 71 % 1020,9 hPa 0,0 l/m² 5,1 km/h 0 min 0,0 UV-I 0 W/m² 11,4 °C 100 %
23.10.2018 20:50 11,2 °C 73 % 1020,6 hPa 0,0 l/m² 0,7 km/h 0 min 0,0 UV-I 0 W/m² 11,2 °C 100 %
23.10.2018 20:40 11,3 °C 73 % 1020,6 hPa 0,0 l/m² 0,6 km/h 0 min 0,0 UV-I 0 W/m² 11,3 °C 100 %
23.10.2018 20:30 11,3 °C 73 % 1020,6 hPa 0,0 l/m² 1,3 km/h 0 min 0,0 UV-I 0 W/m² 11,3 °C 100 %
23.10.2018 20:20 11,3 °C 73 % 1020,7 hPa 0,0 l/m² 3,6 km/h 0 min 0,0 UV-I 0 W/m² 11,3 °C 100 %
23.10.2018 20:10 11,3 °C 73 % 1020,7 hPa 0,0 l/m² 5,1 km/h 0 min 0,0 UV-I 0 W/m² 11,3 °C 99 %
23.10.2018 20:00 11,4 °C 72 % 1020,7 hPa 0,0 l/m² 8,3 km/h 0 min 0,0 UV-I 0 W/m² 10,1 °C 100 %
23.10.2018 19:50 11,3 °C 72 % 1020,8 hPa 0,0 l/m² 8,7 km/h 0 min 0,0 UV-I 0 W/m² 9,8 °C 100 %
23.10.2018 19:40 11,0 °C 74 % 1020,8 hPa 0,0 l/m² 5,9 km/h 0 min 0,0 UV-I 0 W/m² 11,0 °C 100 %
23.10.2018 19:30 10,7 °C 76 % 1021,1 hPa 0,0 l/m² 5,5 km/h 0 min 0,0 UV-I 0 W/m² 10,7 °C 100 %
23.10.2018 19:20 10,3 °C 81 % 1021,3 hPa 0,0 l/m² 2,5 km/h 0 min 0,0 UV-I 0 W/m² 10,3 °C 100 %
23.10.2018 19:10 10,3 °C 82 % 1021,2 hPa 0,0 l/m² 1,7 km/h 0 min 0,0 UV-I 0 W/m² 10,3 °C 100 %
23.10.2018 19:00 10,3 °C 82 % 1021,1 hPa 0,0 l/m² 2,0 km/h 0 min 0,0 UV-I 0 W/m² 10,3 °C 100 %
23.10.2018 18:50 10,3 °C 82 % 1021,1 hPa 0,0 l/m² 1,0 km/h 0 min 0,0 UV-I 0 W/m² 10,3 °C 92 %
23.10.2018 18:40 10,3 °C 82 % 1021,0 hPa 0,0 l/m² 2,5 km/h 0 min 0,0 UV-I 0 W/m² 10,3 °C 100 %
23.10.2018 18:30 10,3 °C 82 % 1021,0 hPa 0,0 l/m² 1,3 km/h 0 min 0,0 UV-I 0 W/m² 10,3 °C 100 %
23.10.2018 18:20 10,4 °C 81 % 1021,0 hPa 0,0 l/m² 0,5 km/h 0 min 0,0 UV-I 0 W/m² 10,4 °C 100 %
23.10.2018 18:10 10,5 °C 81 % 1021,2 hPa 0,0 l/m² 2,4 km/h 0 min 0,0 UV-I 0 W/m² 10,5 °C 100 %
23.10.2018 18:00 10,5 °C 81 % 1021,5 hPa 0,0 l/m² 3,8 km/h 0 min 0,0 UV-I 1 W/m² 10,5 °C 100 %
23.10.2018 17:50 10,6 °C 82 % 1021,6 hPa 0,0 l/m² 3,0 km/h 0 min 0,0 UV-I 11 W/m² 10,6 °C 100 %
23.10.2018 17:40 10,6 °C 82 % 1021,4 hPa 0,0 l/m² 2,4 km/h 0 min 0,0 UV-I 14 W/m² 10,6 °C 100 %
23.10.2018 17:30 10,7 °C 83 % 1021,5 hPa 0,0 l/m² 3,3 km/h 0 min 0,0 UV-I 19 W/m² 10,7 °C 100 %
23.10.2018 17:20 10,7 °C 84 % 1021,6 hPa 0,0 l/m² 2,2 km/h 0 min 0,0 UV-I 20 W/m² 10,7 °C 100 %
23.10.2018 17:10 10,8 °C 84 % 1021,7 hPa 0,0 l/m² 3,4 km/h 0 min 0,0 UV-I 21 W/m² 10,8 °C 100 %
23.10.2018 17:00 10,9 °C 84 % 1022,1 hPa 0,0 l/m² 2,4 km/h 0 min 0,0 UV-I 20 W/m² 10,9 °C 100 %
23.10.2018 16:50 11,0 °C 83 % 1022,1 hPa 0,0 l/m² 4,4 km/h 0 min 0,0 UV-I 22 W/m² 11,0 °C 100 %
23.10.2018 16:40 11,3 °C 81 % 1022,2 hPa 0,0 l/m² 5,2 km/h 0 min 0,0 UV-I 24 W/m² 11,3 °C 100 %
23.10.2018 16:30 11,7 °C 78 % 1022,1 hPa 0,2 l/m² 5,0 km/h 0 min 0,0 UV-I 29 W/m² 11,7 °C 99 %
23.10.2018 16:20 11,9 °C 75 % 1022,2 hPa 0,0 l/m² 5,9 km/h 0 min 0,0 UV-I 38 W/m² 11,9 °C 100 %
23.10.2018 16:10 12,1 °C 74 % 1022,3 hPa 0,0 l/m² 5,6 km/h 0 min 0,0 UV-I 39 W/m² 12,1 °C 100 %
23.10.2018 16:00 12,1 °C 73 % 1022,4 hPa 0,0 l/m² 6,2 km/h 0 min 0,0 UV-I 43 W/m² 12,1 °C 100 %
23.10.2018 15:50 12,1 °C 73 % 1022,4 hPa 0,0 l/m² 4,3 km/h 0 min 0,3 UV-I 59 W/m² 12,1 °C 99 %
23.10.2018 15:40 12,2 °C 73 % 1022,4 hPa 0,0 l/m² 4,5 km/h 0 min 0,5 UV-I 60 W/m² 12,2 °C 100 %
23.10.2018 15:30 12,2 °C 72 % 1022,7 hPa 0,0 l/m² 4,6 km/h 0 min 0,5 UV-I 61 W/m² 12,2 °C 100 %
23.10.2018 15:20 12,3 °C 72 % 1022,8 hPa 0,0 l/m² 5,0 km/h 0 min 0,6 UV-I 81 W/m² 12,3 °C 100 %
23.10.2018 15:10 12,3 °C 71 % 1023,0 hPa 0,0 l/m² 5,5 km/h 10 min 0,8 UV-I 108 W/m² 12,3 °C 100 %
23.10.2018 15:00 12,4 °C 71 % 1023,2 hPa 0,0 l/m² 4,2 km/h 10 min 0,8 UV-I 111 W/m² 12,4 °C 91 %
23.10.2018 14:50 12,3 °C 72 % 1023,4 hPa 0,0 l/m² 3,6 km/h 10 min 0,9 UV-I 136 W/m² 12,3 °C 100 %
23.10.2018 14:40 12,3 °C 71 % 1023,4 hPa 0,0 l/m² 5,3 km/h 10 min 0,9 UV-I 120 W/m² 12,3 °C 100 %
23.10.2018 14:30 12,2 °C 72 % 1023,5 hPa 0,0 l/m² 3,8 km/h 10 min 0,9 UV-I 112 W/m² 12,2 °C 100 %
23.10.2018 14:20 12,2 °C 72 % 1023,7 hPa 0,0 l/m² 4,6 km/h 10 min 0,9 UV-I 112 W/m² 12,2 °C 100 %
23.10.2018 14:10 12,3 °C 72 % 1023,8 hPa 0,0 l/m² 4,1 km/h 10 min 1,0 UV-I 135 W/m² 12,3 °C 100 %
23.10.2018 14:00 12,2 °C 71 % 1023,9 hPa 0,0 l/m² 6,9 km/h 10 min 1,2 UV-I 166 W/m² 11,9 °C 100 %
23.10.2018 13:50 12,2 °C 73 % 1024,2 hPa 0,0 l/m² 6,3 km/h 10 min 1,5 UV-I 221 W/m² 12,2 °C 99 %
23.10.2018 13:40 12,0 °C 74 % 1024,7 hPa 0,0 l/m² 6,8 km/h 10 min 1,3 UV-I 175 W/m² 11,7 °C 99 %
23.10.2018 13:30 11,8 °C 77 % 1024,7 hPa 0,0 l/m² 4,6 km/h 10 min 1,3 UV-I 166 W/m² 11,8 °C 100 %
23.10.2018 13:20 11,5 °C 79 % 1024,9 hPa 0,0 l/m² 4,7 km/h 10 min 1,0 UV-I 128 W/m² 11,5 °C 100 %
23.10.2018 13:10 11,4 °C 80 % 1025,2 hPa 0,0 l/m² 4,3 km/h 10 min 0,9 UV-I 117 W/m² 11,4 °C 100 %
23.10.2018 13:00 11,4 °C 80 % 1025,2 hPa 0,0 l/m² 3,4 km/h 10 min 1,0 UV-I 142 W/m² 11,4 °C 99 %
23.10.2018 12:50 11,2 °C 81 % 1025,6 hPa 0,0 l/m² 4,7 km/h 10 min 1,3 UV-I 190 W/m² 11,2 °C 100 %
23.10.2018 12:40 10,9 °C 81 % 1025,8 hPa 0,0 l/m² 3,4 km/h 10 min 1,0 UV-I 119 W/m² 10,9 °C 91 %
23.10.2018 12:30 10,8 °C 82 % 1025,8 hPa 0,0 l/m² 4,7 km/h 10 min 0,9 UV-I 103 W/m² 10,8 °C 100 %
23.10.2018 12:20 10,6 °C 83 % 1026,2 hPa 0,0 l/m² 7,2 km/h 10 min 1,2 UV-I 159 W/m² 10,0 °C 100 %
23.10.2018 12:10 10,3 °C 85 % 1026,3 hPa 0,0 l/m² 6,3 km/h 0 min 0,8 UV-I 94 W/m² 10,3 °C 100 %
23.10.2018 12:00 10,1 °C 85 % 1026,4 hPa 0,0 l/m² 6,9 km/h 10 min 1,0 UV-I 124 W/m² 9,7 °C 100 %
23.10.2018 11:50 9,9 °C 85 % 1026,4 hPa 0,0 l/m² 8,0 km/h 0 min 0,2 UV-I 58 W/m² 8,7 °C 100 %
23.10.2018 11:40 10,1 °C 84 % 1026,7 hPa 0,0 l/m² 9,4 km/h 0 min 0,3 UV-I 56 W/m² 8,1 °C 100 %
23.10.2018 11:20 10,4 °C 84 % 1026,8 hPa 0,0 l/m² 6,4 km/h 10 min 0,9 UV-I 124 W/m² 10,4 °C 100 %
23.10.2018 11:10 10,3 °C 85 % 1027,1 hPa 0,0 l/m² 6,4 km/h 10 min 0,9 UV-I 116 W/m² 10,3 °C 100 %
23.10.2018 11:00 10,1 °C 86 % 1026,8 hPa 0,0 l/m² 4,8 km/h 10 min 0,8 UV-I 106 W/m² 10,1 °C 100 %
23.10.2018 10:50 9,9 °C 86 % 1026,9 hPa 0,0 l/m² 6,4 km/h 0 min 0,7 UV-I 84 W/m² 9,9 °C 100 %
23.10.2018 10:40 9,7 °C 87 % 1026,8 hPa 0,0 l/m² 3,2 km/h 0 min 0,6 UV-I 74 W/m² 9,7 °C 100 %
23.10.2018 10:30 9,5 °C 87 % 1027,0 hPa 0,0 l/m² 1,6 km/h 0 min 0,6 UV-I 97 W/m² 9,5 °C 100 %
23.10.2018 10:20 9,3 °C 88 % 1027,3 hPa 0,0 l/m² 3,2 km/h 0 min 0,3 UV-I 61 W/m² 9,3 °C 100 %
23.10.2018 10:10 9,1 °C 89 % 1027,6 hPa 0,0 l/m² 3,2 km/h 0 min 0,0 UV-I 34 W/m² 9,1 °C 100 %
23.10.2018 10:00 9,1 °C 89 % 1027,6 hPa 0,0 l/m² 3,2 km/h 0 min 0,0 UV-I 26 W/m² 9,1 °C 100 %
23.10.2018 09:50 9,1 °C 89 % 1027,9 hPa 0,0 l/m² 3,2 km/h 0 min 0,0 UV-I 31 W/m² 9,1 °C 100 %
23.10.2018 09:40 9,0 °C 90 % 1027,6 hPa 0,0 l/m² 1,6 km/h 0 min 0,0 UV-I 45 W/m² 9,0 °C 100 %
23.10.2018 09:30 8,9 °C 90 % 1027,4 hPa 0,0 l/m² 1,6 km/h 0 min 0,0 UV-I 60 W/m² 8,9 °C 100 %
23.10.2018 09:20 8,9 °C 90 % 1027,9 hPa 0,0 l/m² 4,8 km/h 0 min 0,0 UV-I 69 W/m² 8,9 °C 100 %
23.10.2018 09:10 8,8 °C 91 % 1028,0 hPa 0,0 l/m² 4,8 km/h 0 min 0,0 UV-I 45 W/m² 8,8 °C 100 %
23.10.2018 09:00 8,8 °C 91 % 1027,8 hPa 0,0 l/m² 3,2 km/h 0 min 0,0 UV-I 31 W/m² 8,8 °C 100 %
23.10.2018 08:50 8,8 °C 91 % 1027,8 hPa 0,0 l/m² 1,6 km/h 0 min 0,0 UV-I 24 W/m² 8,8 °C 100 %
23.10.2018 08:40 8,8 °C 91 % 1027,8 hPa 0,0 l/m² 1,6 km/h 0 min 0,0 UV-I 33 W/m² 8,8 °C 100 %
23.10.2018 08:30 8,8 °C 91 % 1027,7 hPa 0,0 l/m² 1,6 km/h 0 min 0,0 UV-I 27 W/m² 8,8 °C 100 %
23.10.2018 08:20 8,8 °C 91 % 1027,5 hPa 0,0 l/m² 1,6 km/h 0 min 0,0 UV-I 12 W/m² 8,8 °C 100 %
23.10.2018 08:10 8,8 °C 91 % 1028,0 hPa 0,0 l/m² 3,2 km/h 0 min 0,0 UV-I 6 W/m² 8,8 °C 100 %
23.10.2018 08:00 8,8 °C 91 % 1027,9 hPa 0,0 l/m² 4,8 km/h 0 min 0,0 UV-I 0 W/m² 8,8 °C 100 %
23.10.2018 07:50 8,8 °C 91 % 1027,9 hPa 0,0 l/m² 4,8 km/h 0 min 0,0 UV-I 0 W/m² 8,8 °C 100 %
23.10.2018 07:40 8,9 °C 91 % 1027,8 hPa 0,0 l/m² 4,8 km/h 0 min 0,0 UV-I 0 W/m² 8,9 °C 100 %
23.10.2018 07:30 8,9 °C 92 % 1028,1 hPa 0,0 l/m² 4,8 km/h 0 min 0,0 UV-I 0 W/m² 8,9 °C 100 %
23.10.2018 07:20 9,0 °C 92 % 1028,2 hPa 0,0 l/m² 6,4 km/h 0 min 0,0 UV-I 0 W/m² 9,0 °C 100 %
23.10.2018 07:10 9,1 °C 92 % 1028,2 hPa 0,0 l/m² 4,8 km/h 0 min 0,0 UV-I 0 W/m² 9,1 °C 100 %
23.10.2018 07:00 9,1 °C 93 % 1028,3 hPa 0,0 l/m² 3,2 km/h 0 min 0,0 UV-I 0 W/m² 9,1 °C 100 %
23.10.2018 06:50 8,9 °C 93 % 1028,3 hPa 0,0 l/m² 0,0 km/h 0 min 0,0 UV-I 0 W/m² 8,9 °C 100 %
23.10.2018 06:40 8,9 °C 93 % 1028,4 hPa 0,0 l/m² 0,0 km/h 0 min 0,0 UV-I 0 W/m² 8,9 °C 100 %
23.10.2018 06:30 8,9 °C 93 % 1028,5 hPa 0,0 l/m² 0,0 km/h 0 min 0,0 UV-I 0 W/m² 8,9 °C 100 %
23.10.2018 06:20 8,8 °C 93 % 1028,4 hPa 0,0 l/m² 0,0 km/h 0 min 0,0 UV-I 0 W/m² 8,8 °C 100 %
23.10.2018 06:10 8,9 °C 93 % 1028,6 hPa 0,0 l/m² 0,0 km/h 0 min 0,0 UV-I 0 W/m² 8,9 °C 100 %
23.10.2018 06:00 8,9 °C 93 % 1028,6 hPa 0,0 l/m² 0,0 km/h 0 min 0,0 UV-I 0 W/m² 8,9 °C 100 %
23.10.2018 05:50 8,8 °C 93 % 1028,7 hPa 0,0 l/m² 0,0 km/h 0 min 0,0 UV-I 0 W/m² 8,8 °C 100 %
23.10.2018 05:40 8,8 °C 93 % 1028,9 hPa 0,0 l/m² 0,0 km/h 0 min 0,0 UV-I 0 W/m² 8,8 °C 100 %
23.10.2018 05:30 8,7 °C 93 % 1028,8 hPa 0,0 l/m² 0,0 km/h 0 min 0,0 UV-I 0 W/m² 8,7 °C 100 %
23.10.2018 05:20 8,7 °C 94 % 1028,8 hPa 0,0 l/m² 0,0 km/h 0 min 0,0 UV-I 0 W/m² 8,7 °C 100 %
23.10.2018 05:10 8,7 °C 94 % 1028,8 hPa 0,0 l/m² 0,0 km/h 0 min 0,0 UV-I 0 W/m² 8,7 °C 100 %
23.10.2018 05:00 8,7 °C 94 % 1028,9 hPa 0,0 l/m² 0,0 km/h 0 min 0,0 UV-I 0 W/m² 8,7 °C 100 %
23.10.2018 04:50 8,7 °C 94 % 1028,9 hPa 0,0 l/m² 0,0 km/h 0 min 0,0 UV-I 0 W/m² 8,7 °C 100 %
23.10.2018 04:40 8,7 °C 93 % 1028,8 hPa 0,0 l/m² 0,0 km/h 0 min 0,0 UV-I 0 W/m² 8,7 °C 100 %
23.10.2018 04:30 8,7 °C 93 % 1028,8 hPa 0,0 l/m² 0,0 km/h 0 min 0,0 UV-I 0 W/m² 8,7 °C 100 %
23.10.2018 04:20 8,7 °C 93 % 1029,0 hPa 0,0 l/m² 0,0 km/h 0 min 0,0 UV-I 0 W/m² 8,7 °C 100 %
23.10.2018 04:10 8,7 °C 93 % 1029,2 hPa 0,0 l/m² 0,0 km/h 0 min 0,0 UV-I 0 W/m² 8,7 °C 100 %
23.10.2018 04:00 8,8 °C 93 % 1029,4 hPa 0,0 l/m² 0,0 km/h 0 min 0,0 UV-I 0 W/m² 8,8 °C 100 %
23.10.2018 03:50 8,7 °C 92 % 1029,3 hPa 0,0 l/m² 0,0 km/h 0 min 0,0 UV-I 0 W/m² 8,7 °C 100 %
23.10.2018 03:40 8,7 °C 92 % 1029,4 hPa 0,0 l/m² 0,0 km/h 0 min 0,0 UV-I 0 W/m² 8,7 °C 100 %
23.10.2018 03:30 8,6 °C 91 % 1029,4 hPa 0,0 l/m² 0,0 km/h 0 min 0,0 UV-I 0 W/m² 8,6 °C 100 %
23.10.2018 03:20 8,4 °C 91 % 1029,3 hPa 0,0 l/m² 0,0 km/h 0 min 0,0 UV-I 0 W/m² 8,4 °C 100 %
23.10.2018 03:10 8,4 °C 91 % 1029,3 hPa 0,2 l/m² 0,0 km/h 0 min 0,0 UV-I 0 W/m² 8,4 °C 100 %
23.10.2018 03:00 8,3 °C 90 % 1029,3 hPa 0,0 l/m² 0,0 km/h 0 min 0,0 UV-I 0 W/m² 8,3 °C 100 %
23.10.2018 02:50 8,3 °C 90 % 1029,5 hPa 0,0 l/m² 0,0 km/h 0 min 0,0 UV-I 0 W/m² 8,3 °C 100 %
23.10.2018 02:40 8,2 °C 90 % 1029,6 hPa 0,0 l/m² 0,0 km/h 0 min 0,0 UV-I 0 W/m² 8,2 °C 100 %
23.10.2018 02:30 8,1 °C 89 % 1029,7 hPa 0,0 l/m² 0,0 km/h 0 min 0,0 UV-I 0 W/m² 8,1 °C 100 %
23.10.2018 02:20 8,1 °C 89 % 1029,7 hPa 0,0 l/m² 0,0 km/h 0 min 0,0 UV-I 0 W/m² 8,1 °C 100 %
23.10.2018 02:10 8,2 °C 89 % 1029,7 hPa 0,0 l/m² 0,0 km/h 0 min 0,0 UV-I 0 W/m² 8,2 °C 100 %
23.10.2018 02:00 8,1 °C 89 % 1029,7 hPa 0,0 l/m² 0,0 km/h 0 min 0,0 UV-I 0 W/m² 8,1 °C 100 %
_ Min-Zeit 02:30 01:40 01:40 - 06:50 - - - 01:20 15:00
Minimum _ 8,1 °C 63 % 1018,3 hPa - 0,0 km/h - - - 7,5 °C 91 %
_ Max-Zeit 01:30 05:20 02:30 16:30 01:20 15:10 13:50 13:50 15:00 01:40
Maximum _ 12,5 °C 94 % 1029,7 hPa 0,2 l/m² 16,6 km/h
NW
10 min 1,5 UV-I 221 W/m² 12,4 °C 100 %
Durchschnitt _ 10,2 °C 83 % 1024,9 hPa #0,4 l/m² 4,0 km/h #0 min. 0,0 UV-I 0 W/m² 9,8 °C 100 %